Avoca, Nebraska
Current Conditions -  °F | °C
As of 5:35 AM on Friday 31 Oct 2014 (Local Time) from KPMV Reporting Station
Clear Clear  
Wind Chill: 22°   Ceiling: Unl
Heat Index: 32°   Visibility: 10mi
Dew Point: 19°   Wind: 13mph
Humidity: 59%   Direction: 350°N
Pressure: 30.48"   Gusts: 20mph
Location:  40.8°N, 96.12°W
Report Text: KPMV 311035Z AUTO 35011G17KT 10SM CLR 00/M07 A3048 RMK AO2 T10021074
Loading
Personal Weather Stations






























Interactive Weather Map
Tropical Storm Tracking
New forecast layout! Learn more

10-Day Weather Forecast

Advertisements
Track Severe Weather on mobile